Green Fast — ZDHA9 — position and weather

sailwx.info

Track history (hours):
 
Tides and Currents Weather Stations Pressure Air Temp Water Temp Dewpoint Dewpoint Depression Visibility Wind Speed Wind Dir Waves Ship Positions

Green Fast

Last reported at 2016-Sep-20 07:33 UTC. Time now 2016-Sep-25 19:06 UTC.
Position N 36°23' E 013°37'.

Length 118 m; draft 7.6 m.

Type: Cargo ship. MMSI: 236294000.

Date/timePositionNaut miles runAvg speedWind from/ knotsBaromVisibWave heightAir tempDewpointWater temp
2016-Sep-20 07:33N 36°23' E 013°37'1010.5
2016-Sep-20 06:33N 36°18' E 013°48'39 9.6
2016-Sep-20 02:33N 35°60' E 014°30'22 3.1
2016-Sep-19 19:33N 35°52' E 014°55'43910.7
2016-Sep-18 02:33N 37°05' E 023°54'1111.3
2016-Sep-18 01:33N 37°14' E 024°03'3311.1
2016-Sep-17 22:33N 37°40' E 024°28'1111.6
2016-Sep-17 21:33N 37°51' E 024°33'9111.3
2016-Sep-17 13:33N 39°22' E 024°38'1111.2
2016-Sep-17 12:33N 39°33' E 024°37'2210.9
2016-Sep-17 10:33N 39°54' E 024°33'1111.0
2016-Sep-17 09:33N 40°05' E 024°31'1212.1
2016-Sep-17 08:33N 40°17' E 024°29'1211.8
2016-Sep-17 07:32N 40°29' E 024°27'2311.7
2016-Sep-17 05:33N 40°52' E 024°27'4 4.3
2016-Sep-17 04:32N 40°57' E 024°28'0 0.0
2016-Sep-17 00:29N 40°57' E 024°28'0 0.0
2016-Sep-16 17:32N 40°57' E 024°28'0 0.0
2016-Sep-16 15:32N 40°57' E 024°28'0 0.0
2016-Sep-16 12:32N 40°57' E 024°28'0 0.0
2016-Sep-16 09:32N 40°57' E 024°28'0 0.0
2016-Sep-16 07:32N 40°57' E 024°28'0 0.0
2016-Sep-16 03:32N 40°57' E 024°28'0 0.0
2016-Sep-16 02:29N 40°57' E 024°28'0 0.0
2016-Sep-16 00:29N 40°57' E 024°28'0 0.0
2016-Sep-15 22:29N 40°57' E 024°28'0 0.0
2016-Sep-15 21:32N 40°57' E 024°28'0 0.0
2016-Sep-15 20:32N 40°57' E 024°28'0 0.0
2016-Sep-15 18:32N 40°57' E 024°28'0 0.0
2016-Sep-15 12:32N 40°57' E 024°28'0 0.0
2016-Sep-15 11:26N 40°57' E 024°28'0 0.0
2016-Sep-15 04:29N 40°57' E 024°28'0 0.0
2016-Sep-15 03:29N 40°57' E 024°28'0 0.0
2016-Sep-15 01:32N 40°57' E 024°28'0 0.0
2016-Sep-14 22:32N 40°57' E 024°28'0 0.0
2016-Sep-14 21:32N 40°57' E 024°28'0 0.0
2016-Sep-14 17:32N 40°57' E 024°28'0 0.0
2016-Sep-14 16:32N 40°57' E 024°28'0 0.0
2016-Sep-14 13:32N 40°57' E 024°28'0 0.0
2016-Sep-14 12:32N 40°57' E 024°28'0 0.0
2016-Sep-14 10:32N 40°57' E 024°28'0 0.0
2016-Sep-14 09:32N 40°57' E 024°28'0 0.0
2016-Sep-14 08:32N 40°57' E 024°28'0 0.0
2016-Sep-14 07:32N 40°57' E 024°28'0 0.0
2016-Sep-14 06:32N 40°57' E 024°28'0 0.0
2016-Sep-14 03:32N 40°57' E 024°28'0 0.0
2016-Sep-13 22:29N 40°57' E 024°28'0 0.0
2016-Sep-13 20:29N 40°57' E 024°28'0 0.0
2016-Sep-13 18:32N 40°57' E 024°28'0 0.0
2016-Sep-13 17:32N 40°57' E 024°28'0 0.0
2016-Sep-13 16:32N 40°57' E 024°28'0 0.0
2016-Sep-13 11:32N 40°57' E 024°28'0 0.0
2016-Sep-13 09:32N 40°57' E 024°28'0 0.0
2016-Sep-13 07:32N 40°57' E 024°28'0 0.0
2016-Sep-13 06:32N 40°57' E 024°28'1 0.5
2016-Sep-13 04:33N 40°56' E 024°29'0 0.0
2016-Sep-13 02:33N 40°56' E 024°29'0 0.0
2016-Sep-12 23:33N 40°56' E 024°29'0 0.0
2016-Sep-12 21:30N 40°56' E 024°29'0 0.0
2016-Sep-12 19:33N 40°56' E 024°29'0 0.1
2016-Sep-12 17:33N 40°56' E 024°29'0 0.0
2016-Sep-12 14:33N 40°56' E 024°29'0 0.0
2016-Sep-12 13:30N 40°56' E 024°29'0 0.0
2016-Sep-12 12:33N 40°56' E 024°29'0 0.0
2016-Sep-12 11:33N 40°56' E 024°29'0 0.0
2016-Sep-12 10:33N 40°56' E 024°29'0 0.0
2016-Sep-12 07:33N 40°56' E 024°29'0 0.1
2016-Sep-12 06:33N 40°56' E 024°29'0 0.0
2016-Sep-12 03:33N 40°56' E 024°29'0 0.0
2016-Sep-12 01:33N 40°56' E 024°29'0 0.0
2016-Sep-11 23:30N 40°56' E 024°29'0 0.1
2016-Sep-11 22:33N 40°56' E 024°29'0 0.1
2016-Sep-11 21:33N 40°56' E 024°29'0 0.1
2016-Sep-11 20:33N 40°56' E 024°29'0 0.1
2016-Sep-11 19:33N 40°56' E 024°29'0 0.1
2016-Sep-11 18:33N 40°56' E 024°29'0 0.1
2016-Sep-11 17:33N 40°56' E 024°29'0 0.0
2016-Sep-11 16:33N 40°56' E 024°29'0 0.0
2016-Sep-11 15:33N 40°56' E 024°29'0 0.0
2016-Sep-11 14:33N 40°56' E 024°29'0 0.1
2016-Sep-11 13:33N 40°56' E 024°29'0 0.1
2016-Sep-11 12:33N 40°56' E 024°29'0 0.1
2016-Sep-11 11:33N 40°56' E 024°29'0 0.0
2016-Sep-11 10:33N 40°56' E 024°29'0 0.1
2016-Sep-11 08:33N 40°56' E 024°29'0 0.0
2016-Sep-11 07:33N 40°56' E 024°29'0 0.0
2016-Sep-11 03:33N 40°56' E 024°29'0 0.0
2016-Sep-11 02:30N 40°56' E 024°29'0 0.0
2016-Sep-11 01:33N 40°56' E 024°29'0 0.0
2016-Sep-11 00:33N 40°56' E 024°29'0 0.0
2016-Sep-10 23:33N 40°56' E 024°29'0 0.0
2016-Sep-10 22:33N 40°56' E 024°29'0 0.0
2016-Sep-10 21:33N 40°56' E 024°29'0 0.0
2016-Sep-10 20:33N 40°56' E 024°29'0 0.0
2016-Sep-10 19:33N 40°56' E 024°29'0 0.0
2016-Sep-10 18:33N 40°56' E 024°29'0 0.0
2016-Sep-10 17:33N 40°56' E 024°29'0 0.1
2016-Sep-10 16:33N 40°56' E 024°29'0 0.0
2016-Sep-10 15:33N 40°56' E 024°29'0 0.0
2016-Sep-10 14:33N 40°56' E 024°29'0 0.0
2016-Sep-10 13:33N 40°56' E 024°29'0 0.1
2016-Sep-10 12:33N 40°56' E 024°29'0 0.0
2016-Sep-10 11:33N 40°56' E 024°29'0 0.0
2016-Sep-10 10:33N 40°56' E 024°29'0 0.0
2016-Sep-10 09:33N 40°56' E 024°29'0 0.0
2016-Sep-10 08:33N 40°56' E 024°29'  
Track history (hours):
 
Tides and Currents Weather Stations Pressure Air Temp Water Temp Dewpoint Dewpoint Depression Visibility Wind Speed Wind Dir Waves Ship Positions

Green Fast

Last reported at 2016-Sep-20 07:33 UTC. Time now 2016-Sep-25 19:06 UTC.
Position N 36°23' E 013°37'.

Length 118 m; draft 7.6 m.

Type: Cargo ship. MMSI: 236294000.

Date/timePositionNaut miles runAvg speedWind from/ knotsBaromVisibWave heightAir tempDewpointWater temp
2016-Sep-20 07:33N 36°23' E 013°37'1010.5
2016-Sep-20 06:33N 36°18' E 013°48'39 9.6
2016-Sep-20 02:33N 35°60' E 014°30'22 3.1
2016-Sep-19 19:33N 35°52' E 014°55'43910.7
2016-Sep-18 02:33N 37°05' E 023°54'1111.3
2016-Sep-18 01:33N 37°14' E 024°03'3311.1
2016-Sep-17 22:33N 37°40' E 024°28'1111.6
2016-Sep-17 21:33N 37°51' E 024°33'9111.3
2016-Sep-17 13:33N 39°22' E 024°38'1111.2
2016-Sep-17 12:33N 39°33' E 024°37'2210.9
2016-Sep-17 10:33N 39°54' E 024°33'1111.0
2016-Sep-17 09:33N 40°05' E 024°31'1212.1
2016-Sep-17 08:33N 40°17' E 024°29'1211.8
2016-Sep-17 07:32N 40°29' E 024°27'2311.7
2016-Sep-17 05:33N 40°52' E 024°27'4 4.3
2016-Sep-17 04:32N 40°57' E 024°28'0 0.0
2016-Sep-17 00:29N 40°57' E 024°28'0 0.0
2016-Sep-16 17:32N 40°57' E 024°28'0 0.0
2016-Sep-16 15:32N 40°57' E 024°28'0 0.0
2016-Sep-16 12:32N 40°57' E 024°28'0 0.0
2016-Sep-16 09:32N 40°57' E 024°28'0 0.0
2016-Sep-16 07:32N 40°57' E 024°28'0 0.0
2016-Sep-16 03:32N 40°57' E 024°28'0 0.0
2016-Sep-16 02:29N 40°57' E 024°28'0 0.0
2016-Sep-16 00:29N 40°57' E 024°28'0 0.0
2016-Sep-15 22:29N 40°57' E 024°28'0 0.0
2016-Sep-15 21:32N 40°57' E 024°28'0 0.0
2016-Sep-15 20:32N 40°57' E 024°28'0 0.0
2016-Sep-15 18:32N 40°57' E 024°28'0 0.0
2016-Sep-15 12:32N 40°57' E 024°28'0 0.0
2016-Sep-15 11:26N 40°57' E 024°28'0 0.0
2016-Sep-15 04:29N 40°57' E 024°28'0 0.0
2016-Sep-15 03:29N 40°57' E 024°28'0 0.0
2016-Sep-15 01:32N 40°57' E 024°28'0 0.0
2016-Sep-14 22:32N 40°57' E 024°28'0 0.0
2016-Sep-14 21:32N 40°57' E 024°28'0 0.0
2016-Sep-14 17:32N 40°57' E 024°28'0 0.0
2016-Sep-14 16:32N 40°57' E 024°28'0 0.0
2016-Sep-14 13:32N 40°57' E 024°28'0 0.0
2016-Sep-14 12:32N 40°57' E 024°28'0 0.0
2016-Sep-14 10:32N 40°57' E 024°28'0 0.0
2016-Sep-14 09:32N 40°57' E 024°28'0 0.0
2016-Sep-14 08:32N 40°57' E 024°28'0 0.0
2016-Sep-14 07:32N 40°57' E 024°28'0 0.0
2016-Sep-14 06:32N 40°57' E 024°28'0 0.0
2016-Sep-14 03:32N 40°57' E 024°28'0 0.0
2016-Sep-13 22:29N 40°57' E 024°28'0 0.0
2016-Sep-13 20:29N 40°57' E 024°28'0 0.0
2016-Sep-13 18:32N 40°57' E 024°28'0 0.0
2016-Sep-13 17:32N 40°57' E 024°28'0 0.0
2016-Sep-13 16:32N 40°57' E 024°28'0 0.0
2016-Sep-13 11:32N 40°57' E 024°28'0 0.0
2016-Sep-13 09:32N 40°57' E 024°28'0 0.0
2016-Sep-13 07:32N 40°57' E 024°28'0 0.0
2016-Sep-13 06:32N 40°57' E 024°28'1 0.5
2016-Sep-13 04:33N 40°56' E 024°29'0 0.0
2016-Sep-13 02:33N 40°56' E 024°29'0 0.0
2016-Sep-12 23:33N 40°56' E 024°29'0 0.0
2016-Sep-12 21:30N 40°56' E 024°29'0 0.0
2016-Sep-12 19:33N 40°56' E 024°29'0 0.1
2016-Sep-12 17:33N 40°56' E 024°29'0 0.0
2016-Sep-12 14:33N 40°56' E 024°29'0 0.0
2016-Sep-12 13:30N 40°56' E 024°29'0 0.0
2016-Sep-12 12:33N 40°56' E 024°29'0 0.0
2016-Sep-12 11:33N 40°56' E 024°29'0 0.0
2016-Sep-12 10:33N 40°56' E 024°29'0 0.0
2016-Sep-12 07:33N 40°56' E 024°29'0 0.1
2016-Sep-12 06:33N 40°56' E 024°29'0 0.0
2016-Sep-12 03:33N 40°56' E 024°29'0 0.0
2016-Sep-12 01:33N 40°56' E 024°29'0 0.0
2016-Sep-11 23:30N 40°56' E 024°29'0 0.1
2016-Sep-11 22:33N 40°56' E 024°29'0 0.1
2016-Sep-11 21:33N 40°56' E 024°29'0 0.1
2016-Sep-11 20:33N 40°56' E 024°29'0 0.1
2016-Sep-11 19:33N 40°56' E 024°29'0 0.1
2016-Sep-11 18:33N 40°56' E 024°29'0 0.1
2016-Sep-11 17:33N 40°56' E 024°29'0 0.0
2016-Sep-11 16:33N 40°56' E 024°29'0 0.0
2016-Sep-11 15:33N 40°56' E 024°29'0 0.0
2016-Sep-11 14:33N 40°56' E 024°29'0 0.1
2016-Sep-11 13:33N 40°56' E 024°29'0 0.1
2016-Sep-11 12:33N 40°56' E 024°29'0 0.1
2016-Sep-11 11:33N 40°56' E 024°29'0 0.0
2016-Sep-11 10:33N 40°56' E 024°29'0 0.1
2016-Sep-11 08:33N 40°56' E 024°29'0 0.0
2016-Sep-11 07:33N 40°56' E 024°29'0 0.0
2016-Sep-11 03:33N 40°56' E 024°29'0 0.0
2016-Sep-11 02:30N 40°56' E 024°29'0 0.0
2016-Sep-11 01:33N 40°56' E 024°29'0 0.0
2016-Sep-11 00:33N 40°56' E 024°29'0 0.0
2016-Sep-10 23:33N 40°56' E 024°29'0 0.0
2016-Sep-10 22:33N 40°56' E 024°29'0 0.0
2016-Sep-10 21:33N 40°56' E 024°29'0 0.0
2016-Sep-10 20:33N 40°56' E 024°29'0 0.0
2016-Sep-10 19:33N 40°56' E 024°29'0 0.0
2016-Sep-10 18:33N 40°56' E 024°29'0 0.0
2016-Sep-10 17:33N 40°56' E 024°29'0 0.1
2016-Sep-10 16:33N 40°56' E 024°29'0 0.0
2016-Sep-10 15:33N 40°56' E 024°29'0 0.0
2016-Sep-10 14:33N 40°56' E 024°29'0 0.0
2016-Sep-10 13:33N 40°56' E 024°29'0 0.1
2016-Sep-10 12:33N 40°56' E 024°29'0 0.0
2016-Sep-10 11:33N 40°56' E 024°29'0 0.0
2016-Sep-10 10:33N 40°56' E 024°29'0 0.0
2016-Sep-10 09:33N 40°56' E 024°29'0 0.0
2016-Sep-10 08:33N 40°56' E 024°29'  

Dump ship's entire track history